createdAt,value
2018-12-24T13:21:22.728Z,4.75
2018-12-24T13:22:22.697Z,4.77
2018-12-24T13:23:22.683Z,4.79
2018-12-24T13:24:22.665Z,4.76
2018-12-24T13:25:22.659Z,4.69
2018-12-24T13:26:22.667Z,4.67
2018-12-24T13:27:22.697Z,4.67
2018-12-24T13:28:22.624Z,4.50
2018-12-24T13:29:22.611Z,4.51
2018-12-24T13:30:22.596Z,4.52
2018-12-24T13:31:22.595Z,4.50
2018-12-24T13:32:22.617Z,4.47
2018-12-24T13:33:22.565Z,4.42
2018-12-24T13:34:46.326Z,4.40
2018-12-24T13:35:46.324Z,4.37
2018-12-24T13:36:46.292Z,4.37
2018-12-24T13:37:46.357Z,4.39
2018-12-24T13:38:46.271Z,4.44
2018-12-24T13:39:46.261Z,4.54
2018-12-24T13:40:46.252Z,4.46
2018-12-24T13:41:46.236Z,4.52
2018-12-24T13:42:46.314Z,4.64
2018-12-24T13:43:46.216Z,4.64
2018-12-24T13:44:46.207Z,4.70
2018-12-24T13:45:46.196Z,4.75
2018-12-24T13:46:46.189Z,4.69
2018-12-24T13:47:46.202Z,4.65
2018-12-24T13:48:46.162Z,4.72
2018-12-24T13:49:46.152Z,4.69
2018-12-24T13:50:46.152Z,4.65
2018-12-24T13:51:46.146Z,4.65
2018-12-24T13:52:46.152Z,4.50
2018-12-24T13:53:46.109Z,4.50
2018-12-24T13:54:46.101Z,4.47
2018-12-24T13:55:46.096Z,4.39
2018-12-24T13:56:46.082Z,4.36
2018-12-24T13:57:46.104Z,4.34
2018-12-24T13:58:46.067Z,4.33
2018-12-24T13:59:46.090Z,4.26
2018-12-24T14:00:46.040Z,4.37
2018-12-24T14:01:46.028Z,4.37
2018-12-24T14:02:46.043Z,4.34
2018-12-24T14:03:46.034Z,4.33
2018-12-24T14:04:46.000Z,4.29
2018-12-24T14:05:45.987Z,4.36
2018-12-24T14:06:45.976Z,4.22
2018-12-24T14:07:45.967Z,4.24
2018-12-24T14:08:45.987Z,4.16
2018-12-24T14:09:45.949Z,4.21
2018-12-24T14:10:45.940Z,4.26
2018-12-24T14:11:45.927Z,4.12
2018-12-24T14:12:45.916Z,4.15
2018-12-24T14:13:45.929Z,4.15
2018-12-24T14:14:45.895Z,4.06
2018-12-24T14:15:45.884Z,4.10
2018-12-24T14:16:45.873Z,4.04
2018-12-24T14:17:45.861Z,4.08
2018-12-24T14:18:45.887Z,4.08
2018-12-24T14:19:45.842Z,4.04
2018-12-24T14:20:45.833Z,4.12
2018-12-24T14:21:45.825Z,4.08
2018-12-24T14:22:45.818Z,4.10
2018-12-24T14:23:45.883Z,4.10
2018-12-24T14:24:45.828Z,4.14
2018-12-24T14:25:45.801Z,4.08
2018-12-24T14:26:45.790Z,4.08
2018-12-24T14:27:45.764Z,4.12
2018-12-24T14:28:45.800Z,4.06
2018-12-24T14:29:45.752Z,4.04
2018-12-24T14:30:45.731Z,4.03
2018-12-24T14:31:45.729Z,4.01
2018-12-24T14:32:45.719Z,4.14
2018-12-24T14:33:45.698Z,4.14
2018-12-24T14:34:45.720Z,4.12
2018-12-24T14:35:45.678Z,4.07
2018-12-24T14:36:45.672Z,4.21
2018-12-24T14:37:45.657Z,4.18
2018-12-24T14:38:45.659Z,4.18
2018-12-24T14:39:45.706Z,4.18
2018-12-24T14:40:45.625Z,4.28
2018-12-24T14:41:45.614Z,4.22
2018-12-24T14:42:45.608Z,4.22
2018-12-24T14:43:45.598Z,4.36
2018-12-24T14:44:45.592Z,4.34
2018-12-24T14:45:45.638Z,4.33
2018-12-24T14:46:45.643Z,4.37
2018-12-24T14:47:45.559Z,4.32
2018-12-24T14:48:45.545Z,4.40
2018-12-24T14:49:45.572Z,4.39
2018-12-24T14:50:47.330Z,4.39
2018-12-24T14:51:45.525Z,4.44
2018-12-24T14:52:45.505Z,4.52
2018-12-24T14:53:45.494Z,4.46
2018-12-24T14:54:45.488Z,4.54
2018-12-24T14:55:45.519Z,4.52
2018-12-24T14:56:45.476Z,4.54
2018-12-24T14:57:45.467Z,4.58
2018-12-24T14:58:45.442Z,4.50
2018-12-24T14:59:45.433Z,4.47
2018-12-24T15:00:45.450Z,4.47
2018-12-24T15:01:45.412Z,4.51
2018-12-24T15:02:45.402Z,4.55
2018-12-24T15:03:45.391Z,4.46
2018-12-24T15:04:45.382Z,4.51
2018-12-24T15:05:45.403Z,4.59
2018-12-24T15:06:45.361Z,4.55
2018-12-24T15:07:45.350Z,4.50
2018-12-24T15:08:45.341Z,4.46
2018-12-24T15:09:45.334Z,4.46
2018-12-24T15:10:45.349Z,4.54
2018-12-24T15:11:45.320Z,4.47
2018-12-24T15:12:45.301Z,4.47
2018-12-24T15:13:45.290Z,4.47
2018-12-24T15:14:45.280Z,4.57
2018-12-24T15:15:45.327Z,4.47
2018-12-24T15:16:45.262Z,4.47
2018-12-24T15:17:45.252Z,4.47
2018-12-24T15:18:45.241Z,4.50
2018-12-24T15:19:45.229Z,4.46
2018-12-24T15:20:45.222Z,4.47
2018-12-24T15:21:45.233Z,4.43
2018-12-24T15:22:45.199Z,4.36
2018-12-24T15:23:45.195Z,4.40
2018-12-24T15:24:45.196Z,4.37
2018-12-24T15:25:45.171Z,4.34
2018-12-24T15:26:45.285Z,4.24
2018-12-24T15:27:45.179Z,4.28
2018-12-24T15:28:45.149Z,4.24
2018-12-24T15:29:45.129Z,4.24
2018-12-24T15:30:45.152Z,4.32
2018-12-24T15:31:45.141Z,4.22
2018-12-24T15:32:45.106Z,4.25
2018-12-24T15:33:45.090Z,4.19
2018-12-24T15:34:45.080Z,4.24
2018-12-24T15:35:45.068Z,4.24
2018-12-24T15:36:45.091Z,4.25
2018-12-24T15:37:45.078Z,4.26
2018-12-24T15:38:45.038Z,4.33
2018-12-24T15:39:45.029Z,4.25
2018-12-24T15:40:45.020Z,4.28
2018-12-24T15:41:45.008Z,4.29
2018-12-24T15:42:45.029Z,4.26
2018-12-24T15:43:44.989Z,4.28
2018-12-24T15:44:44.976Z,4.19
2018-12-24T15:45:44.967Z,4.32
2018-12-24T15:46:44.980Z,4.18
2018-12-24T15:47:44.973Z,4.25
2018-12-24T15:48:44.946Z,4.26
2018-12-24T15:49:44.926Z,4.28
2018-12-24T15:50:44.917Z,4.24
2018-12-24T15:51:44.906Z,4.26
2018-12-24T15:52:44.923Z,4.26
2018-12-24T15:53:44.888Z,4.36
2018-12-24T15:54:44.879Z,4.24
2018-12-24T15:55:44.867Z,4.24
2018-12-24T15:56:44.856Z,4.26
2018-12-24T15:57:44.872Z,4.36
2018-12-24T15:58:44.841Z,4.29
2018-12-24T15:59:44.827Z,4.37
2018-12-24T16:00:44.837Z,4.39
2018-12-24T16:01:44.815Z,4.39
2018-12-24T16:02:44.820Z,4.40
2018-12-24T16:03:44.813Z,4.44
2018-12-24T16:04:44.776Z,4.47
2018-12-24T16:05:44.812Z,4.40
2018-12-24T16:06:44.761Z,4.44
2018-12-24T16:07:44.744Z,4.44
2018-12-24T16:08:44.764Z,4.39
2018-12-24T16:09:44.722Z,4.42
2018-12-24T16:10:44.716Z,4.43
2018-12-24T16:11:44.703Z,4.44
2018-12-24T16:12:44.697Z,4.33
2018-12-24T16:13:44.684Z,4.36
2018-12-24T16:14:44.709Z,4.39
2018-12-24T16:15:44.662Z,4.37
2018-12-24T16:16:50.934Z,4.34
2018-12-24T16:17:45.643Z,4.40
2018-12-24T16:18:44.672Z,4.37
2018-12-24T16:19:44.649Z,4.37
2018-12-24T16:20:44.617Z,4.39
2018-12-24T16:21:44.605Z,4.36
2018-12-24T16:22:44.597Z,4.36
2018-12-24T16:23:44.607Z,4.37
2018-12-24T16:24:44.608Z,4.37
2018-12-24T16:25:44.567Z,4.37
2018-12-24T16:26:44.553Z,4.34
2018-12-24T16:27:44.570Z,4.40
2018-12-24T16:28:44.533Z,4.40
2018-12-24T16:29:44.554Z,4.43
2018-12-24T16:30:44.514Z,4.43
2018-12-24T16:31:44.504Z,4.43
2018-12-24T16:32:44.495Z,4.44
2018-12-24T16:33:44.487Z,4.39
2018-12-24T16:34:44.499Z,4.50
2018-12-24T16:35:44.465Z,4.47
2018-12-24T16:36:44.457Z,4.47
2018-12-24T16:37:44.446Z,4.47
2018-12-24T16:38:44.432Z,4.40
2018-12-24T16:39:44.458Z,4.40
2018-12-24T16:40:44.421Z,4.46
2018-12-24T16:41:44.429Z,4.37
2018-12-24T16:42:44.392Z,4.54
2018-12-24T16:43:44.384Z,4.51
2018-12-24T16:44:44.403Z,4.52
2018-12-24T16:45:44.431Z,4.54
2018-12-24T16:46:44.348Z,4.51
2018-12-24T16:47:44.338Z,4.54
2018-12-24T16:48:44.331Z,4.50
2018-12-24T16:49:44.321Z,4.46
2018-12-24T16:50:44.337Z,4.52
2018-12-24T16:51:44.298Z,4.44
2018-12-24T16:52:44.292Z,4.52
2018-12-24T16:53:44.277Z,4.44
2018-12-24T16:54:44.269Z,4.54
2018-12-24T16:55:44.287Z,4.54
2018-12-24T16:56:44.259Z,4.47
2018-12-24T16:57:44.236Z,4.54
2018-12-24T16:58:44.224Z,4.33
2018-12-24T16:59:44.221Z,4.43
2018-12-24T17:00:44.236Z,4.46
2018-12-24T17:01:44.192Z,4.42
2018-12-24T17:02:44.183Z,4.42
2018-12-24T17:03:44.180Z,4.34
2018-12-24T17:04:44.164Z,4.37
2018-12-24T17:05:44.179Z,4.36
2018-12-24T17:06:44.139Z,4.43
2018-12-24T17:07:44.135Z,4.43
2018-12-24T17:08:44.119Z,4.50
2018-12-24T17:09:44.116Z,4.42
2018-12-24T17:10:44.139Z,4.42
2018-12-24T17:11:44.087Z,4.40
2018-12-24T17:12:44.078Z,4.50
2018-12-24T17:13:44.077Z,4.40
2018-12-24T17:14:44.059Z,4.44
2018-12-24T17:15:44.046Z,4.44
2018-12-24T17:16:44.080Z,4.33
2018-12-24T17:17:44.026Z,4.40
2018-12-24T17:18:44.015Z,4.40
2018-12-24T17:19:44.005Z,4.34
2018-12-24T17:20:43.998Z,4.42
2018-12-24T17:21:44.021Z,4.43
2018-12-24T17:22:43.978Z,4.42
2018-12-24T17:23:43.962Z,4.34
2018-12-24T17:24:43.955Z,4.40
2018-12-24T17:25:43.945Z,4.37
2018-12-24T17:26:43.957Z,4.39
2018-12-24T17:27:43.946Z,4.39
2018-12-24T17:28:43.912Z,4.37
2018-12-24T17:29:43.904Z,4.37
2018-12-24T17:30:43.892Z,4.33
2018-12-24T17:31:43.910Z,4.34
2018-12-24T17:32:43.897Z,4.36
2018-12-24T17:33:43.864Z,4.43
2018-12-24T17:34:43.849Z,4.42
2018-12-24T17:35:43.841Z,4.42
2018-12-24T17:36:43.828Z,4.50
2018-12-24T17:37:43.845Z,4.46
2018-12-24T17:38:43.809Z,4.40
2018-12-24T17:39:43.798Z,4.34
2018-12-24T17:40:43.793Z,4.43
2018-12-24T17:41:43.778Z,4.40
2018-12-24T17:42:43.795Z,4.50
2018-12-24T17:43:43.768Z,4.42
2018-12-24T17:44:43.749Z,4.47
2018-12-24T17:45:43.737Z,4.54
2018-12-24T17:46:43.726Z,4.50
2018-12-24T17:47:43.835Z,4.43
2018-12-24T17:48:43.705Z,4.46
2018-12-24T17:49:43.697Z,4.46
2018-12-24T17:50:43.686Z,4.46
2018-12-24T17:51:43.675Z,4.40
2018-12-24T17:52:43.700Z,4.36
2018-12-24T17:53:43.659Z,4.36
2018-12-24T17:54:43.644Z,4.37
2018-12-24T17:55:43.643Z,4.42
2018-12-24T17:56:43.626Z,4.37
2018-12-24T17:57:43.651Z,4.42
2018-12-24T17:58:44.578Z,4.36
2018-12-24T17:59:43.595Z,4.46
2018-12-24T18:00:43.584Z,4.46
2018-12-24T18:01:43.571Z,4.47
2018-12-24T18:02:43.563Z,4.43
2018-12-24T18:03:43.619Z,4.34
2018-12-24T18:04:43.542Z,4.40
2018-12-24T18:05:43.531Z,4.36
2018-12-24T18:06:43.520Z,4.47
2018-12-24T18:07:43.509Z,4.36
2018-12-24T18:08:43.525Z,4.44
2018-12-24T18:09:43.491Z,4.33
2018-12-24T18:10:43.476Z,4.36
2018-12-24T18:11:43.471Z,4.47
2018-12-24T18:12:43.458Z,4.40
2018-12-24T18:13:43.482Z,4.46
2018-12-24T18:14:43.470Z,4.40
2018-12-24T18:15:43.437Z,4.39
2018-12-24T18:16:43.413Z,4.40
2018-12-24T18:17:43.414Z,4.44
2018-12-24T18:18:43.397Z,4.43
2018-12-24T18:19:43.441Z,4.37
2018-12-24T18:20:43.376Z,4.37
2018-12-24T18:21:43.406Z,4.34
2018-12-24T18:22:43.354Z,4.40
2018-12-24T18:23:43.339Z,4.32
2018-12-24T18:24:43.367Z,4.40
2018-12-24T18:25:43.322Z,4.39
2018-12-24T18:26:43.312Z,4.34
2018-12-24T18:27:43.317Z,4.42
2018-12-24T18:28:43.319Z,4.46
2018-12-24T18:29:43.313Z,4.42
2018-12-24T18:30:43.269Z,4.51
2018-12-24T18:31:43.264Z,4.39
2018-12-24T18:32:43.265Z,4.42
2018-12-24T18:33:43.242Z,4.44
2018-12-24T18:34:43.259Z,4.33
2018-12-24T18:35:43.219Z,4.34
2018-12-24T18:36:43.249Z,4.42
2018-12-24T18:37:43.197Z,4.42
2018-12-24T18:38:43.189Z,4.46
2018-12-24T18:39:43.202Z,4.51
2018-12-24T18:40:43.170Z,4.46
2018-12-24T18:41:43.159Z,4.52
2018-12-24T18:42:43.165Z,4.54
2018-12-24T18:43:43.147Z,4.52
2018-12-24T18:44:43.154Z,4.44
2018-12-24T18:45:43.115Z,4.54
2018-12-24T18:46:43.110Z,4.52
2018-12-24T18:47:43.092Z,4.43
2018-12-24T18:48:43.083Z,4.43
2018-12-24T18:49:43.096Z,4.47
2018-12-24T18:50:43.099Z,4.36
2018-12-24T18:51:43.050Z,4.44
2018-12-24T18:52:43.041Z,4.47
2018-12-24T18:53:43.033Z,4.46
2018-12-24T18:54:43.019Z,4.47
2018-12-24T18:55:43.036Z,4.43
2018-12-24T18:56:43.006Z,4.50
2018-12-24T18:57:42.987Z,4.52
2018-12-24T18:58:42.976Z,4.46
2018-12-24T18:59:42.980Z,4.47
2018-12-24T19:00:42.995Z,4.39
2018-12-24T19:01:42.951Z,4.51
2018-12-24T19:02:42.934Z,4.50
2018-12-24T19:03:42.928Z,4.47
2018-12-24T19:04:42.913Z,4.47
2018-12-24T19:05:42.931Z,4.57
2018-12-24T19:06:42.896Z,4.47
2018-12-24T19:07:42.883Z,4.52
2018-12-24T19:08:42.878Z,4.51
2018-12-24T19:09:42.912Z,4.47
2018-12-24T19:10:42.877Z,4.42
2018-12-24T19:11:42.864Z,4.50
2018-12-24T19:12:42.826Z,4.51
2018-12-24T19:13:42.820Z,4.52
2018-12-24T19:14:42.807Z,4.50
2018-12-24T19:15:42.798Z,4.52
2018-12-24T19:16:42.813Z,4.52
2018-12-24T19:17:42.775Z,4.47
2018-12-24T19:18:42.764Z,4.47
2018-12-24T19:19:42.762Z,4.52
2018-12-24T19:20:42.769Z,4.51
2018-12-24T19:21:44.073Z,4.51
2018-12-24T19:22:42.742Z,4.47
2018-12-24T19:23:42.713Z,4.43
2018-12-24T19:24:42.709Z,4.47
2018-12-24T19:25:42.691Z,4.54
2018-12-24T19:26:42.714Z,4.55
2018-12-24T19:27:42.676Z,4.55
2018-12-24T19:28:42.659Z,4.55
2018-12-24T19:29:42.651Z,4.59
2018-12-24T19:30:42.639Z,4.55
2018-12-24T19:31:42.653Z,4.51
2018-12-24T19:32:42.617Z,4.57
2018-12-24T19:33:42.606Z,4.54
2018-12-24T19:34:42.595Z,4.54
2018-12-24T19:35:42.584Z,4.57
2018-12-24T19:36:42.612Z,4.57
2018-12-24T19:37:42.566Z,4.52
2018-12-24T19:38:42.552Z,4.59
2018-12-24T19:39:42.544Z,4.54
2018-12-24T19:40:42.532Z,4.59
2018-12-24T19:41:42.553Z,4.54
2018-12-24T19:42:42.512Z,4.58
2018-12-24T19:43:42.501Z,4.58
2018-12-24T19:44:42.491Z,4.65
2018-12-24T19:45:42.480Z,4.64
2018-12-24T19:46:42.472Z,4.62
2018-12-24T19:47:49.711Z,4.62
2018-12-24T19:48:43.452Z,4.61
2018-12-24T19:49:42.440Z,4.65
2018-12-24T19:50:42.435Z,4.69
2018-12-24T19:51:42.419Z,4.69
2018-12-24T19:52:42.481Z,4.58
2018-12-24T19:53:42.423Z,4.59
2018-12-24T19:54:42.391Z,4.65
2018-12-24T19:55:42.377Z,4.64
2018-12-24T19:56:42.369Z,4.65
2018-12-24T19:57:42.392Z,4.67
2018-12-24T19:58:42.352Z,4.70
2018-12-24T19:59:42.335Z,4.70
2018-12-24T20:00:42.336Z,4.70
2018-12-24T20:01:42.317Z,4.70
2018-12-24T20:02:42.336Z,4.67
2018-12-24T20:03:42.324Z,4.61
2018-12-24T20:04:42.294Z,4.73
2018-12-24T20:05:42.275Z,4.72
2018-12-24T20:06:42.268Z,4.72
2018-12-24T20:07:42.438Z,4.69
2018-12-24T20:08:42.270Z,4.72
2018-12-24T20:09:42.250Z,4.69
2018-12-24T20:10:42.232Z,4.79
2018-12-24T20:11:42.213Z,4.77
2018-12-24T20:12:42.210Z,4.73
2018-12-24T20:13:42.226Z,4.75
2018-12-24T20:14:42.184Z,4.77
2018-12-24T20:15:42.271Z,4.77
2018-12-24T20:16:42.164Z,4.76
2018-12-24T20:17:42.157Z,4.75
2018-12-24T20:18:42.172Z,4.69
2018-12-24T20:19:42.129Z,4.59
2018-12-24T20:20:42.118Z,4.67
2018-12-24T20:21:42.111Z,4.65
2018-12-24T20:22:42.105Z,4.67
2018-12-24T20:23:42.155Z,4.67
2018-12-24T20:24:42.109Z,4.67
2018-12-24T20:25:42.097Z,4.65
2018-12-24T20:26:42.062Z,4.67
2018-12-24T20:27:42.051Z,4.62
2018-12-24T20:28:42.063Z,4.72
2018-12-24T20:29:42.061Z,4.69
2018-12-24T20:30:42.018Z,4.65
2018-12-24T20:31:42.012Z,4.69
2018-12-24T20:32:41.998Z,4.67
2018-12-24T20:33:41.988Z,4.65
2018-12-24T20:34:42.011Z,4.73
2018-12-24T20:35:41.978Z,4.69
2018-12-24T20:36:41.972Z,4.77
2018-12-24T20:37:41.947Z,4.76
2018-12-24T20:38:41.940Z,4.72
2018-12-24T20:39:41.974Z,4.76
2018-12-24T20:40:41.917Z,4.76
2018-12-24T20:41:41.920Z,4.80
2018-12-24T20:42:43.137Z,4.77
2018-12-24T20:43:41.882Z,4.73
2018-12-24T20:44:41.880Z,4.70
2018-12-24T20:45:41.896Z,4.69
2018-12-24T20:46:41.855Z,4.72
2018-12-24T20:47:41.857Z,4.65
2018-12-24T20:48:41.831Z,4.76
2018-12-24T20:49:41.861Z,4.69
2018-12-24T20:50:41.838Z,4.64
2018-12-24T20:51:41.817Z,4.70
2018-12-24T20:52:41.795Z,4.64
2018-12-24T20:53:41.800Z,4.70
2018-12-24T20:54:41.773Z,4.70
2018-12-24T20:55:41.805Z,4.67
2018-12-24T20:56:41.749Z,4.64
2018-12-24T20:57:41.748Z,4.69
2018-12-24T20:58:41.740Z,4.69
2018-12-24T20:59:41.736Z,4.75
2018-12-24T21:00:41.747Z,4.62
2018-12-24T21:01:41.701Z,4.73
2018-12-24T21:02:41.692Z,4.76
2018-12-24T21:03:41.681Z,4.72
2018-12-24T21:04:41.666Z,4.69
2018-12-24T21:05:41.682Z,4.67
2018-12-24T21:06:41.647Z,4.65
2018-12-24T21:07:41.646Z,4.62
2018-12-24T21:08:41.629Z,4.64
2018-12-24T21:09:41.616Z,4.67
2018-12-24T21:10:41.678Z,4.64
2018-12-24T21:11:41.611Z,4.62
2018-12-24T21:12:41.700Z,4.62
2018-12-24T21:13:41.575Z,4.65
2018-12-24T21:14:41.574Z,4.65
2018-12-24T21:15:41.585Z,4.64
2018-12-24T21:16:41.580Z,4.61
2018-12-24T21:17:41.547Z,4.61
2018-12-24T21:18:41.737Z,4.65
2018-12-24T21:19:41.515Z,4.62
2018-12-24T21:20:41.531Z,4.59
2018-12-24T21:21:41.528Z,4.57
2018-12-24T21:22:41.506Z,4.55
2018-12-24T21:23:41.480Z,4.61
2018-12-24T21:24:41.463Z,4.55
2018-12-24T21:25:41.479Z,4.59
2018-12-24T21:26:41.440Z,4.55
2018-12-24T21:27:41.491Z,4.57
2018-12-24T21:28:41.437Z,4.47
2018-12-24T21:29:41.422Z,4.52
2018-12-24T21:30:41.405Z,4.55
2018-12-24T21:31:41.417Z,4.59
2018-12-24T21:32:41.451Z,4.47
2018-12-24T21:33:41.376Z,4.52
2018-12-24T21:34:41.374Z,4.50
2018-12-24T21:35:41.358Z,4.52
2018-12-24T21:36:41.386Z,4.47
2018-12-24T21:37:41.336Z,4.47
2018-12-24T21:38:41.330Z,4.50
2018-12-24T21:39:41.322Z,4.44
2018-12-24T21:40:41.318Z,4.51
2018-12-24T21:41:41.320Z,4.57
2018-12-24T21:42:41.324Z,4.57
2018-12-24T21:43:41.282Z,4.57
2018-12-24T21:44:41.260Z,4.61
2018-12-24T21:45:41.260Z,4.58
2018-12-24T21:46:41.285Z,4.46
2018-12-24T21:47:41.236Z,4.57
2018-12-24T21:48:41.218Z,4.57
2018-12-24T21:49:41.210Z,4.59
2018-12-24T21:50:41.198Z,4.57
2018-12-24T21:51:41.285Z,4.58
2018-12-24T21:52:41.188Z,4.59
2018-12-24T21:53:41.211Z,4.58
2018-12-24T21:54:41.164Z,4.55
2018-12-24T21:55:41.146Z,4.52
2018-12-24T21:56:41.136Z,4.51
2018-12-24T21:57:41.134Z,4.54
2018-12-24T21:58:41.246Z,4.50
2018-12-24T21:59:41.106Z,4.46
2018-12-24T22:00:41.096Z,4.47
2018-12-24T22:01:41.088Z,4.58
2018-12-24T22:02:41.102Z,4.50
2018-12-24T22:03:41.194Z,4.47
2018-12-24T22:04:41.074Z,4.47
2018-12-24T22:05:41.046Z,4.54
2018-12-24T22:06:41.070Z,4.55
2018-12-24T22:07:41.027Z,4.57
2018-12-24T22:08:41.021Z,4.50
2018-12-24T22:09:41.087Z,4.51
2018-12-24T22:10:41.030Z,4.52
2018-12-24T22:11:40.984Z,4.44
2018-12-24T22:12:40.973Z,4.52
2018-12-24T22:13:41.046Z,4.52
2018-12-24T22:14:41.288Z,4.50
2018-12-24T22:15:40.946Z,4.54
2018-12-24T22:16:40.947Z,4.51
2018-12-24T22:17:40.922Z,4.47
2018-12-24T22:18:40.959Z,4.62
2018-12-24T22:19:40.925Z,4.51
2018-12-24T22:20:40.891Z,4.52
2018-12-24T22:21:40.886Z,4.54
2018-12-24T22:22:40.874Z,4.50
2018-12-24T22:23:40.867Z,4.47
2018-12-24T22:24:40.888Z,4.43
2018-12-24T22:25:40.840Z,4.44
2018-12-24T22:26:40.836Z,4.42
2018-12-24T22:27:40.821Z,4.44
2018-12-24T22:28:40.814Z,4.39
2018-12-24T22:29:40.868Z,4.40
2018-12-24T22:30:40.813Z,4.46
2018-12-24T22:31:40.776Z,4.44
2018-12-24T22:32:40.766Z,4.51
2018-12-24T22:33:40.764Z,4.47
2018-12-24T22:34:40.759Z,4.43
2018-12-24T22:35:40.772Z,4.50
2018-12-24T22:36:40.726Z,4.42
2018-12-24T22:37:40.719Z,4.44
2018-12-24T22:38:40.709Z,4.47
2018-12-24T22:39:40.708Z,4.42
2018-12-24T22:40:40.711Z,4.44
2018-12-24T22:41:40.674Z,4.43
2018-12-24T22:42:40.675Z,4.37
2018-12-24T22:43:40.660Z,4.37
2018-12-24T22:44:40.645Z,4.47
2018-12-24T22:45:40.658Z,4.37
2018-12-24T22:46:40.633Z,4.44
2018-12-24T22:47:40.621Z,4.39
2018-12-24T22:48:41.092Z,4.37
2018-12-24T22:49:40.592Z,4.39
2018-12-24T22:50:40.621Z,4.40
2018-12-24T22:51:40.582Z,4.43
2018-12-24T22:52:40.573Z,4.40
2018-12-24T22:53:40.549Z,4.39
2018-12-24T22:54:40.541Z,4.43
2018-12-24T22:55:40.560Z,4.39
2018-12-24T22:56:42.262Z,4.39
2018-12-24T22:57:40.523Z,4.33
2018-12-24T22:58:40.500Z,4.42
2018-12-24T22:59:40.496Z,4.36
2018-12-24T23:00:40.532Z,4.47
2018-12-24T23:01:40.495Z,4.43
2018-12-24T23:02:40.458Z,4.47
2018-12-24T23:03:40.458Z,4.50
2018-12-24T23:04:40.435Z,4.42
2018-12-24T23:05:40.425Z,4.44
2018-12-24T23:06:40.449Z,4.51
2018-12-24T23:07:40.404Z,4.36
2018-12-24T23:08:40.394Z,4.42
2018-12-24T23:09:40.390Z,4.42
2018-12-24T23:10:40.396Z,4.40
2018-12-24T23:11:40.419Z,4.42
2018-12-24T23:12:40.384Z,4.44
2018-12-24T23:13:40.347Z,4.50
2018-12-24T23:14:40.333Z,4.44
2018-12-24T23:15:40.362Z,4.42
2018-12-24T23:16:40.317Z,4.50
2018-12-24T23:17:40.340Z,4.44
2018-12-24T23:18:40.292Z,4.43
2018-12-24T23:19:40.284Z,4.43
2018-12-24T23:20:40.287Z,4.43
2018-12-24T23:21:40.289Z,4.34
2018-12-24T23:22:40.285Z,4.44
2018-12-24T23:23:40.241Z,4.43
2018-12-24T23:24:40.231Z,4.43
2018-12-24T23:25:40.218Z,4.39
2018-12-24T23:26:40.220Z,4.40
2018-12-24T23:27:40.223Z,4.42
2018-12-24T23:28:40.191Z,4.34
2018-12-24T23:29:40.177Z,4.36
2018-12-24T23:30:40.167Z,4.37
2018-12-24T23:31:40.168Z,4.34
2018-12-24T23:32:40.180Z,4.39
2018-12-24T23:33:40.139Z,4.33
2018-12-24T23:34:40.128Z,4.40
2018-12-24T23:35:40.116Z,4.40
2018-12-24T23:36:40.109Z,4.36
2018-12-24T23:37:40.136Z,4.34
2018-12-24T23:38:40.085Z,4.34
2018-12-24T23:39:40.077Z,4.34
2018-12-24T23:40:40.068Z,4.40
2018-12-24T23:41:40.053Z,4.40
2018-12-24T23:42:40.045Z,4.40
2018-12-24T23:43:40.230Z,4.37
2018-12-24T23:44:40.032Z,4.34
2018-12-24T23:45:40.012Z,4.32
2018-12-24T23:46:40.003Z,4.28
2018-12-24T23:47:40.026Z,4.25
2018-12-24T23:48:40.005Z,4.19
2018-12-24T23:49:39.976Z,4.24
2018-12-24T23:50:39.964Z,4.34
2018-12-24T23:51:39.959Z,4.33
2018-12-24T23:52:39.944Z,4.36
2018-12-24T23:53:40.033Z,4.36
2018-12-24T23:54:39.929Z,4.37
2018-12-24T23:55:39.919Z,4.43
2018-12-24T23:56:39.902Z,4.39
2018-12-24T23:57:39.890Z,4.37
2018-12-24T23:58:39.908Z,4.36
2018-12-24T23:59:39.871Z,4.46
